sensor_id;sensor_type;location;lat;lon;timestamp;temperature;humidity
6841;DHT22;3458;53.678;14.080;2023-04-06T00:00:32;4.50;95.90
6841;DHT22;3458;53.678;14.080;2023-04-06T00:02:58;4.50;96.20
6841;DHT22;3458;53.678;14.080;2023-04-06T00:05:23;4.50;96.20
6841;DHT22;3458;53.678;14.080;2023-04-06T00:07:49;4.50;96.30
6841;DHT22;3458;53.678;14.080;2023-04-06T00:10:16;4.50;96.30
6841;DHT22;3458;53.678;14.080;2023-04-06T00:12:42;4.40;96.50
6841;DHT22;3458;53.678;14.080;2023-04-06T00:15:07;4.40;96.50
6841;DHT22;3458;53.678;14.080;2023-04-06T00:17:33;4.40;96.60
6841;DHT22;3458;53.678;14.080;2023-04-06T00:19:58;4.40;96.70
6841;DHT22;3458;53.678;14.080;2023-04-06T00:22:24;4.40;96.70
6841;DHT22;3458;53.678;14.080;2023-04-06T00:24:50;4.40;96.80
6841;DHT22;3458;53.678;14.080;2023-04-06T00:27:15;4.40;96.90
6841;DHT22;3458;53.678;14.080;2023-04-06T00:29:41;4.30;97.10
6841;DHT22;3458;53.678;14.080;2023-04-06T00:32:06;4.40;97.80
6841;DHT22;3458;53.678;14.080;2023-04-06T00:34:32;4.40;97.60
6841;DHT22;3458;53.678;14.080;2023-04-06T00:36:57;4.40;97.50
6841;DHT22;3458;53.678;14.080;2023-04-06T00:39:23;4.30;97.50
6841;DHT22;3458;53.678;14.080;2023-04-06T00:41:52;4.30;97.70
6841;DHT22;3458;53.678;14.080;2023-04-06T00:44:18;4.30;98.00
6841;DHT22;3458;53.678;14.080;2023-04-06T00:46:44;4.30;98.20
6841;DHT22;3458;53.678;14.080;2023-04-06T00:49:10;4.20;98.30
6841;DHT22;3458;53.678;14.080;2023-04-06T00:51:36;4.20;98.30
6841;DHT22;3458;53.678;14.080;2023-04-06T00:54:01;4.10;98.30
6841;DHT22;3458;53.678;14.080;2023-04-06T00:56:27;4.10;98.50
6841;DHT22;3458;53.678;14.080;2023-04-06T00:58:52;4.10;98.70
6841;DHT22;3458;53.678;14.080;2023-04-06T01:01:18;4.00;98.80
6841;DHT22;3458;53.678;14.080;2023-04-06T01:03:43;4.00;99.10
6841;DHT22;3458;53.678;14.080;2023-04-06T01:06:12;4.00;99.30
6841;DHT22;3458;53.678;14.080;2023-04-06T01:08:38;4.00;99.40
6841;DHT22;3458;53.678;14.080;2023-04-06T01:11:03;4.00;99.80
6841;DHT22;3458;53.678;14.080;2023-04-06T01:13:29;4.00;99.90
6841;DHT22;3458;53.678;14.080;2023-04-06T01:15:54;4.00;99.90
6841;DHT22;3458;53.678;14.080;2023-04-06T01:18:26;4.00;99.90
6841;DHT22;3458;53.678;14.080;2023-04-06T01:20:51;3.90;99.90
6841;DHT22;3458;53.678;14.080;2023-04-06T01:23:17;3.90;99.90
6841;DHT22;3458;53.678;14.080;2023-04-06T01:25:42;3.90;99.90
6841;DHT22;3458;53.678;14.080;2023-04-06T01:28:08;3.90;99.90
6841;DHT22;3458;53.678;14.080;2023-04-06T01:30:33;3.80;99.90
6841;DHT22;3458;53.678;14.080;2023-04-06T01:32:59;3.70;99.90
6841;DHT22;3458;53.678;14.080;2023-04-06T01:35:26;3.60;99.90
6841;DHT22;3458;53.678;14.080;2023-04-06T01:37:52;3.60;99.90
6841;DHT22;3458;53.678;14.080;2023-04-06T01:40:17;3.50;99.90
6841;DHT22;3458;53.678;14.080;2023-04-06T01:42:43;3.50;99.90
6841;DHT22;3458;53.678;14.080;2023-04-06T01:45:09;3.50;99.90
6841;DHT22;3458;53.678;14.080;2023-04-06T01:47:34;3.50;99.90
6841;DHT22;3458;53.678;14.080;2023-04-06T01:50:00;3.50;99.90
6841;DHT22;3458;53.678;14.080;2023-04-06T01:52:25;3.50;99.90
6841;DHT22;3458;53.678;14.080;2023-04-06T01:54:51;3.50;99.90
6841;DHT22;3458;53.678;14.080;2023-04-06T01:57:16;3.50;99.90
6841;DHT22;3458;53.678;14.080;2023-04-06T01:59:42;3.50;99.90
6841;DHT22;3458;53.678;14.080;2023-04-06T02:02:07;3.50;99.90
6841;DHT22;3458;53.678;14.080;2023-04-06T02:04:33;3.50;99.90
6841;DHT22;3458;53.678;14.080;2023-04-06T02:06:58;3.50;99.90
6841;DHT22;3458;53.678;14.080;2023-04-06T02:09:24;3.50;99.90
6841;DHT22;3458;53.678;14.080;2023-04-06T02:11:49;3.50;99.90
6841;DHT22;3458;53.678;14.080;2023-04-06T02:14:15;3.50;99.90
6841;DHT22;3458;53.678;14.080;2023-04-06T02:16:40;3.60;99.90
6841;DHT22;3458;53.678;14.080;2023-04-06T02:19:06;3.50;99.90
6841;DHT22;3458;53.678;14.080;2023-04-06T02:21:32;3.50;99.90
6841;DHT22;3458;53.678;14.080;2023-04-06T02:23:57;3.50;99.90
6841;DHT22;3458;53.678;14.080;2023-04-06T02:26:23;3.60;99.90
6841;DHT22;3458;53.678;14.080;2023-04-06T02:28:48;3.50;99.90
6841;DHT22;3458;53.678;14.080;2023-04-06T02:31:14;3.50;99.90
6841;DHT22;3458;53.678;14.080;2023-04-06T02:33:40;3.50;99.90
6841;DHT22;3458;53.678;14.080;2023-04-06T02:36:06;3.50;99.90
6841;DHT22;3458;53.678;14.080;2023-04-06T02:38:31;3.50;99.90
6841;DHT22;3458;53.678;14.080;2023-04-06T02:40:57;3.50;99.90
6841;DHT22;3458;53.678;14.080;2023-04-06T02:43:22;3.50;99.90
6841;DHT22;3458;53.678;14.080;2023-04-06T02:45:48;3.50;99.90
6841;DHT22;3458;53.678;14.080;2023-04-06T02:48:13;3.50;99.90
6841;DHT22;3458;53.678;14.080;2023-04-06T02:50:39;3.60;99.90
6841;DHT22;3458;53.678;14.080;2023-04-06T02:53:04;3.60;99.90
6841;DHT22;3458;53.678;14.080;2023-04-06T02:55:30;3.60;99.90
6841;DHT22;3458;53.678;14.080;2023-04-06T02:57:55;3.70;99.90
6841;DHT22;3458;53.678;14.080;2023-04-06T03:00:21;3.70;99.90
6841;DHT22;3458;53.678;14.080;2023-04-06T03:02:46;3.70;99.90
6841;DHT22;3458;53.678;14.080;2023-04-06T03:05:12;3.70;99.90
6841;DHT22;3458;53.678;14.080;2023-04-06T03:07:37;3.70;99.90
6841;DHT22;3458;53.678;14.080;2023-04-06T03:10:03;3.70;99.90
6841;DHT22;3458;53.678;14.080;2023-04-06T03:12:29;3.70;99.90
6841;DHT22;3458;53.678;14.080;2023-04-06T03:14:54;3.70;99.90
6841;DHT22;3458;53.678;14.080;2023-04-06T03:17:20;3.70;99.90
6841;DHT22;3458;53.678;14.080;2023-04-06T03:19:45;3.70;99.90
6841;DHT22;3458;53.678;14.080;2023-04-06T03:22:11;3.70;99.90
6841;DHT22;3458;53.678;14.080;2023-04-06T03:24:36;3.70;99.90
6841;DHT22;3458;53.678;14.080;2023-04-06T03:27:02;3.70;99.90
6841;DHT22;3458;53.678;14.080;2023-04-06T03:29:27;3.70;99.90
6841;DHT22;3458;53.678;14.080;2023-04-06T03:31:53;3.70;99.90
6841;DHT22;3458;53.678;14.080;2023-04-06T03:34:18;3.70;99.90
6841;DHT22;3458;53.678;14.080;2023-04-06T03:36:44;3.70;99.90
6841;DHT22;3458;53.678;14.080;2023-04-06T03:39:09;3.80;99.90
6841;DHT22;3458;53.678;14.080;2023-04-06T03:41:35;3.80;99.90
6841;DHT22;3458;53.678;14.080;2023-04-06T03:44:00;3.80;99.90
6841;DHT22;3458;53.678;14.080;2023-04-06T03:46:26;3.80;99.90
6841;DHT22;3458;53.678;14.080;2023-04-06T03:48:52;3.90;99.90
6841;DHT22;3458;53.678;14.080;2023-04-06T03:51:18;3.80;99.90
6841;DHT22;3458;53.678;14.080;2023-04-06T03:53:43;3.80;99.90
6841;DHT22;3458;53.678;14.080;2023-04-06T03:56:09;3.80;99.90
6841;DHT22;3458;53.678;14.080;2023-04-06T03:58:34;3.80;99.90
6841;DHT22;3458;53.678;14.080;2023-04-06T04:01:00;3.80;99.90
6841;DHT22;3458;53.678;14.080;2023-04-06T04:03:25;3.80;99.90
6841;DHT22;3458;53.678;14.080;2023-04-06T04:05:53;3.80;99.90
6841;DHT22;3458;53.678;14.080;2023-04-06T04:08:18;3.80;99.90
6841;DHT22;3458;53.678;14.080;2023-04-06T04:10:44;3.80;99.90
6841;DHT22;3458;53.678;14.080;2023-04-06T04:13:09;3.70;99.90
6841;DHT22;3458;53.678;14.080;2023-04-06T04:15:35;3.80;99.90
6841;DHT22;3458;53.678;14.080;2023-04-06T04:18:00;3.70;99.90
6841;DHT22;3458;53.678;14.080;2023-04-06T04:20:26;3.70;99.90
6841;DHT22;3458;53.678;14.080;2023-04-06T04:22:51;3.70;99.90
6841;DHT22;3458;53.678;14.080;2023-04-06T04:25:17;3.70;99.90
6841;DHT22;3458;53.678;14.080;2023-04-06T04:27:42;3.70;99.90
6841;DHT22;3458;53.678;14.080;2023-04-06T04:30:08;3.70;99.90
6841;DHT22;3458;53.678;14.080;2023-04-06T04:32:33;3.70;99.90
6841;DHT22;3458;53.678;14.080;2023-04-06T04:34:59;3.60;99.90
6841;DHT22;3458;53.678;14.080;2023-04-06T04:37:24;3.60;99.90
6841;DHT22;3458;53.678;14.080;2023-04-06T04:39:50;3.60;99.90
6841;DHT22;3458;53.678;14.080;2023-04-06T04:42:16;3.60;99.90
6841;DHT22;3458;53.678;14.080;2023-04-06T04:44:41;3.60;99.90
6841;DHT22;3458;53.678;14.080;2023-04-06T04:47:07;3.60;99.90
6841;DHT22;3458;53.678;14.080;2023-04-06T04:49:32;3.60;99.90
6841;DHT22;3458;53.678;14.080;2023-04-06T04:51:58;3.60;99.90
6841;DHT22;3458;53.678;14.080;2023-04-06T04:54:23;3.60;99.90
6841;DHT22;3458;53.678;14.080;2023-04-06T04:56:49;3.70;99.90
6841;DHT22;3458;53.678;14.080;2023-04-06T04:59:15;3.60;99.90
6841;DHT22;3458;53.678;14.080;2023-04-06T05:01:41;3.70;99.90
6841;DHT22;3458;53.678;14.080;2023-04-06T05:04:07;3.70;99.90
6841;DHT22;3458;53.678;14.080;2023-04-06T05:06:32;3.70;99.90
6841;DHT22;3458;53.678;14.080;2023-04-06T05:08:58;3.70;99.90
6841;DHT22;3458;53.678;14.080;2023-04-06T05:11:23;3.70;99.90
6841;DHT22;3458;53.678;14.080;2023-04-06T05:13:49;3.70;99.90
6841;DHT22;3458;53.678;14.080;2023-04-06T05:16:14;3.70;99.90
6841;DHT22;3458;53.678;14.080;2023-04-06T05:18:40;3.70;99.90
6841;DHT22;3458;53.678;14.080;2023-04-06T05:21:06;3.70;99.90
6841;DHT22;3458;53.678;14.080;2023-04-06T05:23:31;3.70;99.90
6841;DHT22;3458;53.678;14.080;2023-04-06T05:25:57;3.70;99.90
6841;DHT22;3458;53.678;14.080;2023-04-06T05:28:22;3.80;99.90
6841;DHT22;3458;53.678;14.080;2023-04-06T05:30:48;3.80;99.90
6841;DHT22;3458;53.678;14.080;2023-04-06T05:33:13;3.80;99.90
6841;DHT22;3458;53.678;14.080;2023-04-06T05:35:39;3.80;99.90
6841;DHT22;3458;53.678;14.080;2023-04-06T05:38:07;3.80;99.90
6841;DHT22;3458;53.678;14.080;2023-04-06T05:40:33;3.80;99.90
6841;DHT22;3458;53.678;14.080;2023-04-06T05:42:58;3.80;99.90
6841;DHT22;3458;53.678;14.080;2023-04-06T05:45:24;3.90;99.90
6841;DHT22;3458;53.678;14.080;2023-04-06T05:47:49;3.90;99.90
6841;DHT22;3458;53.678;14.080;2023-04-06T05:50:15;3.90;99.90
6841;DHT22;3458;53.678;14.080;2023-04-06T05:52:41;3.90;99.90
6841;DHT22;3458;53.678;14.080;2023-04-06T05:55:09;3.90;99.90
6841;DHT22;3458;53.678;14.080;2023-04-06T05:57:34;4.00;99.90
6841;DHT22;3458;53.678;14.080;2023-04-06T06:00:00;3.90;99.90
6841;DHT22;3458;53.678;14.080;2023-04-06T06:02:26;4.00;99.90
6841;DHT22;3458;53.678;14.080;2023-04-06T06:04:51;4.00;99.90
6841;DHT22;3458;53.678;14.080;2023-04-06T06:07:17;4.00;99.90
6841;DHT22;3458;53.678;14.080;2023-04-06T06:09:42;3.90;99.90
6841;DHT22;3458;53.678;14.080;2023-04-06T06:12:08;3.90;99.90
6841;DHT22;3458;53.678;14.080;2023-04-06T06:14:33;3.90;99.90
6841;DHT22;3458;53.678;14.080;2023-04-06T06:16:59;4.00;99.90
6841;DHT22;3458;53.678;14.080;2023-04-06T06:19:25;4.00;99.90
6841;DHT22;3458;53.678;14.080;2023-04-06T06:21:50;4.00;99.90
6841;DHT22;3458;53.678;14.080;2023-04-06T06:24:16;4.10;99.90
6841;DHT22;3458;53.678;14.080;2023-04-06T06:26:41;4.10;99.90
6841;DHT22;3458;53.678;14.080;2023-04-06T06:29:08;4.20;99.90
6841;DHT22;3458;53.678;14.080;2023-04-06T06:31:34;4.10;99.90
6841;DHT22;3458;53.678;14.080;2023-04-06T06:34:00;4.20;99.90
6841;DHT22;3458;53.678;14.080;2023-04-06T06:36:27;4.30;99.90
6841;DHT22;3458;53.678;14.080;2023-04-06T06:38:52;4.40;99.90
6841;DHT22;3458;53.678;14.080;2023-04-06T06:41:18;4.40;99.90
6841;DHT22;3458;53.678;14.080;2023-04-06T06:43:43;4.50;99.90
6841;DHT22;3458;53.678;14.080;2023-04-06T06:46:09;4.50;99.90
6841;DHT22;3458;53.678;14.080;2023-04-06T06:48:34;4.60;99.90
6841;DHT22;3458;53.678;14.080;2023-04-06T06:51:00;4.60;99.90
6841;DHT22;3458;53.678;14.080;2023-04-06T06:53:26;4.60;99.90
6841;DHT22;3458;53.678;14.080;2023-04-06T06:55:51;4.70;99.90
6841;DHT22;3458;53.678;14.080;2023-04-06T06:58:20;4.70;99.90
6841;DHT22;3458;53.678;14.080;2023-04-06T07:00:46;4.80;99.90
6841;DHT22;3458;53.678;14.080;2023-04-06T07:03:11;4.80;99.90
6841;DHT22;3458;53.678;14.080;2023-04-06T07:05:37;4.90;99.90
6841;DHT22;3458;53.678;14.080;2023-04-06T07:08:02;5.00;99.90
6841;DHT22;3458;53.678;14.080;2023-04-06T07:10:28;5.00;99.90
6841;DHT22;3458;53.678;14.080;2023-04-06T07:12:54;5.10;99.90
6841;DHT22;3458;53.678;14.080;2023-04-06T07:15:19;5.10;99.90
6841;DHT22;3458;53.678;14.080;2023-04-06T07:17:45;5.20;99.90
6841;DHT22;3458;53.678;14.080;2023-04-06T07:20:11;5.20;99.90
6841;DHT22;3458;53.678;14.080;2023-04-06T07:22:38;5.30;99.90
6841;DHT22;3458;53.678;14.080;2023-04-06T07:25:03;5.30;99.90
6841;DHT22;3458;53.678;14.080;2023-04-06T07:27:29;5.40;99.90
6841;DHT22;3458;53.678;14.080;2023-04-06T07:29:54;5.40;99.90
6841;DHT22;3458;53.678;14.080;2023-04-06T07:32:20;5.50;99.90
6841;DHT22;3458;53.678;14.080;2023-04-06T07:34:45;5.50;99.90
6841;DHT22;3458;53.678;14.080;2023-04-06T07:37:12;5.60;99.90
6841;DHT22;3458;53.678;14.080;2023-04-06T07:39:37;5.60;99.90
6841;DHT22;3458;53.678;14.080;2023-04-06T07:42:03;5.70;99.90
6841;DHT22;3458;53.678;14.080;2023-04-06T07:44:28;5.70;99.90
6841;DHT22;3458;53.678;14.080;2023-04-06T07:46:54;5.80;99.90
6841;DHT22;3458;53.678;14.080;2023-04-06T07:49:20;5.90;99.90
6841;DHT22;3458;53.678;14.080;2023-04-06T07:51:46;5.90;99.90
6841;DHT22;3458;53.678;14.080;2023-04-06T07:54:11;6.00;99.90
6841;DHT22;3458;53.678;14.080;2023-04-06T07:56:37;6.10;99.90
6841;DHT22;3458;53.678;14.080;2023-04-06T07:59:02;6.10;99.90
6841;DHT22;3458;53.678;14.080;2023-04-06T08:01:28;6.20;99.90
6841;DHT22;3458;53.678;14.080;2023-04-06T08:03:55;6.30;99.90
6841;DHT22;3458;53.678;14.080;2023-04-06T08:06:21;6.40;99.60
6841;DHT22;3458;53.678;14.080;2023-04-06T08:08:47;6.40;98.90
6841;DHT22;3458;53.678;14.080;2023-04-06T08:11:12;6.50;99.00
6841;DHT22;3458;53.678;14.080;2023-04-06T08:13:38;6.60;98.90
6841;DHT22;3458;53.678;14.080;2023-04-06T08:16:03;6.70;98.90
6841;DHT22;3458;53.678;14.080;2023-04-06T08:18:29;6.80;99.90
6841;DHT22;3458;53.678;14.080;2023-04-06T08:20:55;6.90;99.70
6841;DHT22;3458;53.678;14.080;2023-04-06T08:23:21;7.00;98.30
6841;DHT22;3458;53.678;14.080;2023-04-06T08:25:46;7.10;97.90
6841;DHT22;3458;53.678;14.080;2023-04-06T08:28:12;7.20;96.30
6841;DHT22;3458;53.678;14.080;2023-04-06T08:30:40;7.20;95.80
6841;DHT22;3458;53.678;14.080;2023-04-06T08:33:06;7.30;95.30
6841;DHT22;3458;53.678;14.080;2023-04-06T08:35:31;7.30;95.60
6841;DHT22;3458;53.678;14.080;2023-04-06T08:37:57;7.40;95.20
6841;DHT22;3458;53.678;14.080;2023-04-06T08:40:23;7.50;94.80
6841;DHT22;3458;53.678;14.080;2023-04-06T08:42:59;7.60;94.00
6841;DHT22;3458;53.678;14.080;2023-04-06T08:45:29;7.70;93.10
6841;DHT22;3458;53.678;14.080;2023-04-06T08:47:57;7.80;92.60
6841;DHT22;3458;53.678;14.080;2023-04-06T08:50:29;7.90;92.10
6841;DHT22;3458;53.678;14.080;2023-04-06T08:52:55;8.00;91.40
6841;DHT22;3458;53.678;14.080;2023-04-06T08:55:21;8.10;90.50
6841;DHT22;3458;53.678;14.080;2023-04-06T08:57:48;8.10;89.70
6841;DHT22;3458;53.678;14.080;2023-04-06T09:00:14;8.20;90.00
6841;DHT22;3458;53.678;14.080;2023-04-06T09:02:42;8.30;90.30
6841;DHT22;3458;53.678;14.080;2023-04-06T09:05:09;8.40;88.30
6841;DHT22;3458;53.678;14.080;2023-04-06T09:07:36;8.50;88.70
6841;DHT22;3458;53.678;14.080;2023-04-06T09:10:02;8.60;86.10
6841;DHT22;3458;53.678;14.080;2023-04-06T09:12:30;8.60;83.10
6841;DHT22;3458;53.678;14.080;2023-04-06T09:14:56;8.70;80.70
6841;DHT22;3458;53.678;14.080;2023-04-06T09:17:27;8.70;78.10
6841;DHT22;3458;53.678;14.080;2023-04-06T09:19:53;8.70;78.70
6841;DHT22;3458;53.678;14.080;2023-04-06T09:22:19;8.90;77.50
6841;DHT22;3458;53.678;14.080;2023-04-06T09:24:47;9.00;77.00
6841;DHT22;3458;53.678;14.080;2023-04-06T09:27:14;9.00;75.30
6841;DHT22;3458;53.678;14.080;2023-04-06T09:29:41;9.10;73.00
6841;DHT22;3458;53.678;14.080;2023-04-06T09:32:08;9.10;72.00
6841;DHT22;3458;53.678;14.080;2023-04-06T09:34:37;9.20;71.70
6841;DHT22;3458;53.678;14.080;2023-04-06T09:37:14;9.30;70.00
6841;DHT22;3458;53.678;14.080;2023-04-06T09:39:40;9.40;72.40
6841;DHT22;3458;53.678;14.080;2023-04-06T09:42:05;9.60;72.70
6841;DHT22;3458;53.678;14.080;2023-04-06T09:44:31;9.70;73.00
6841;DHT22;3458;53.678;14.080;2023-04-06T09:46:56;9.70;71.10
6841;DHT22;3458;53.678;14.080;2023-04-06T09:49:22;9.80;69.30
6841;DHT22;3458;53.678;14.080;2023-04-06T09:51:55;9.90;67.90
6841;DHT22;3458;53.678;14.080;2023-04-06T09:54:23;10.00;65.00
6841;DHT22;3458;53.678;14.080;2023-04-06T09:57:09;10.10;67.70
6841;DHT22;3458;53.678;14.080;2023-04-06T10:02:35;10.40;64.80
6841;DHT22;3458;53.678;14.080;2023-04-06T10:05:16;10.40;64.40
6841;DHT22;3458;53.678;14.080;2023-04-06T10:07:45;10.60;63.30
6841;DHT22;3458;53.678;14.080;2023-04-06T10:10:11;10.80;63.20
6841;DHT22;3458;53.678;14.080;2023-04-06T10:12:40;10.90;61.30
6841;DHT22;3458;53.678;14.080;2023-04-06T10:15:06;11.10;61.90
6841;DHT22;3458;53.678;14.080;2023-04-06T10:17:32;11.10;59.30
6841;DHT22;3458;53.678;14.080;2023-04-06T10:20:04;11.10;57.10
6841;DHT22;3458;53.678;14.080;2023-04-06T10:22:52;11.10;56.10
6841;DHT22;3458;53.678;14.080;2023-04-06T10:25:27;11.10;57.20
6841;DHT22;3458;53.678;14.080;2023-04-06T10:27:59;11.20;56.80
6841;DHT22;3458;53.678;14.080;2023-04-06T10:30:25;11.00;57.90
6841;DHT22;3458;53.678;14.080;2023-04-06T10:32:51;10.80;58.30
6841;DHT22;3458;53.678;14.080;2023-04-06T10:35:17;10.60;58.80
6841;DHT22;3458;53.678;14.080;2023-04-06T10:38:00;10.50;57.60
6841;DHT22;3458;53.678;14.080;2023-04-06T10:40:27;10.80;59.30
6841;DHT22;3458;53.678;14.080;2023-04-06T10:42:54;11.10;58.90
6841;DHT22;3458;53.678;14.080;2023-04-06T10:45:21;11.50;59.20
6841;DHT22;3458;53.678;14.080;2023-04-06T10:47:47;11.90;59.70
6841;DHT22;3458;53.678;14.080;2023-04-06T10:50:16;12.30;58.80
6841;DHT22;3458;53.678;14.080;2023-04-06T10:52:45;12.60;59.30
6841;DHT22;3458;53.678;14.080;2023-04-06T10:55:15;12.80;55.70
6841;DHT22;3458;53.678;14.080;2023-04-06T10:57:40;13.00;52.80
6841;DHT22;3458;53.678;14.080;2023-04-06T11:00:06;13.10;52.50
6841;DHT22;3458;53.678;14.080;2023-04-06T11:02:34;12.80;52.40
6841;DHT22;3458;53.678;14.080;2023-04-06T11:04:59;12.50;53.00
6841;DHT22;3458;53.678;14.080;2023-04-06T11:07:28;12.30;51.90
6841;DHT22;3458;53.678;14.080;2023-04-06T11:09:55;12.10;52.20
6841;DHT22;3458;53.678;14.080;2023-04-06T11:12:23;12.10;52.60
6841;DHT22;3458;53.678;14.080;2023-04-06T11:15:00;12.00;53.20
6841;DHT22;3458;53.678;14.080;2023-04-06T11:17:33;11.90;53.80
6841;DHT22;3458;53.678;14.080;2023-04-06T11:20:01;11.80;53.30
6841;DHT22;3458;53.678;14.080;2023-04-06T11:22:27;11.70;53.60
6841;DHT22;3458;53.678;14.080;2023-04-06T11:24:53;11.60;53.80
6841;DHT22;3458;53.678;14.080;2023-04-06T11:27:19;11.60;53.90
6841;DHT22;3458;53.678;14.080;2023-04-06T11:29:46;11.60;53.50
6841;DHT22;3458;53.678;14.080;2023-04-06T11:32:20;11.60;53.30
6841;DHT22;3458;53.678;14.080;2023-04-06T11:34:47;11.50;52.70
6841;DHT22;3458;53.678;14.080;2023-04-06T11:37:13;11.50;52.70
6841;DHT22;3458;53.678;14.080;2023-04-06T11:39:53;11.50;53.30
6841;DHT22;3458;53.678;14.080;2023-04-06T11:42:29;11.50;52.70
6841;DHT22;3458;53.678;14.080;2023-04-06T11:44:59;11.60;52.00
6841;DHT22;3458;53.678;14.080;2023-04-06T11:47:28;11.60;51.80
6841;DHT22;3458;53.678;14.080;2023-04-06T11:49:55;11.60;51.90
6841;DHT22;3458;53.678;14.080;2023-04-06T11:52:27;11.60;52.20
6841;DHT22;3458;53.678;14.080;2023-04-06T11:54:54;11.70;52.40
6841;DHT22;3458;53.678;14.080;2023-04-06T11:57:20;11.60;51.70
6841;DHT22;3458;53.678;14.080;2023-04-06T11:59:46;11.60;51.20
6841;DHT22;3458;53.678;14.080;2023-04-06T12:02:12;11.60;51.90
6841;DHT22;3458;53.678;14.080;2023-04-06T12:04:38;11.60;52.40
6841;DHT22;3458;53.678;14.080;2023-04-06T12:07:04;11.70;53.40
6841;DHT22;3458;53.678;14.080;2023-04-06T12:09:30;11.90;53.60
6841;DHT22;3458;53.678;14.080;2023-04-06T12:11:56;12.10;54.60
6841;DHT22;3458;53.678;14.080;2023-04-06T12:14:22;12.30;55.10
6841;DHT22;3458;53.678;14.080;2023-04-06T12:16:48;12.50;55.70
6841;DHT22;3458;53.678;14.080;2023-04-06T12:19:13;12.60;56.20
6841;DHT22;3458;53.678;14.080;2023-04-06T12:21:39;13.30;57.00
6841;DHT22;3458;53.678;14.080;2023-04-06T12:24:06;13.70;55.00
6841;DHT22;3458;53.678;14.080;2023-04-06T12:26:32;14.10;53.40
6841;DHT22;3458;53.678;14.080;2023-04-06T12:28:59;14.10;52.40
6841;DHT22;3458;53.678;14.080;2023-04-06T12:31:33;13.90;49.20
6841;DHT22;3458;53.678;14.080;2023-04-06T12:33:59;13.70;50.20
6841;DHT22;3458;53.678;14.080;2023-04-06T12:36:37;13.60;50.80
6841;DHT22;3458;53.678;14.080;2023-04-06T12:39:02;13.80;50.40
6841;DHT22;3458;53.678;14.080;2023-04-06T12:41:28;14.00;51.40
6841;DHT22;3458;53.678;14.080;2023-04-06T12:43:55;15.00;53.50
6841;DHT22;3458;53.678;14.080;2023-04-06T12:46:21;16.20;53.20
6841;DHT22;3458;53.678;14.080;2023-04-06T12:48:46;16.20;50.00
6841;DHT22;3458;53.678;14.080;2023-04-06T12:51:13;15.80;49.00
6841;DHT22;3458;53.678;14.080;2023-04-06T12:53:38;15.20;49.40
6841;DHT22;3458;53.678;14.080;2023-04-06T12:56:13;14.80;48.90
6841;DHT22;3458;53.678;14.080;2023-04-06T12:58:39;14.50;48.40
6841;DHT22;3458;53.678;14.080;2023-04-06T13:01:06;14.20;48.00
6841;DHT22;3458;53.678;14.080;2023-04-06T13:03:32;14.00;48.90
6841;DHT22;3458;53.678;14.080;2023-04-06T13:06:00;13.80;50.80
6841;DHT22;3458;53.678;14.080;2023-04-06T13:08:26;13.70;51.50
6841;DHT22;3458;53.678;14.080;2023-04-06T13:10:52;13.80;51.90
6841;DHT22;3458;53.678;14.080;2023-04-06T13:13:26;13.90;52.10
6841;DHT22;3458;53.678;14.080;2023-04-06T13:15:53;14.10;52.20
6841;DHT22;3458;53.678;14.080;2023-04-06T13:18:18;14.10;51.30
6841;DHT22;3458;53.678;14.080;2023-04-06T13:20:46;13.90;51.80
6841;DHT22;3458;53.678;14.080;2023-04-06T13:23:12;13.80;52.00
6841;DHT22;3458;53.678;14.080;2023-04-06T13:25:37;13.70;51.30
6841;DHT22;3458;53.678;14.080;2023-04-06T13:28:03;13.60;51.10
6841;DHT22;3458;53.678;14.080;2023-04-06T13:30:28;13.50;51.40
6841;DHT22;3458;53.678;14.080;2023-04-06T13:32:55;13.50;52.30
6841;DHT22;3458;53.678;14.080;2023-04-06T13:35:20;13.50;52.60
6841;DHT22;3458;53.678;14.080;2023-04-06T13:37:46;13.50;53.30
6841;DHT22;3458;53.678;14.080;2023-04-06T13:40:12;13.50;53.40
6841;DHT22;3458;53.678;14.080;2023-04-06T13:42:37;13.30;53.10
6841;DHT22;3458;53.678;14.080;2023-04-06T13:45:07;13.20;52.70
6841;DHT22;3458;53.678;14.080;2023-04-06T13:47:32;13.00;52.90
6841;DHT22;3458;53.678;14.080;2023-04-06T13:49:58;13.00;54.00
6841;DHT22;3458;53.678;14.080;2023-04-06T13:52:24;13.00;53.80
6841;DHT22;3458;53.678;14.080;2023-04-06T13:54:49;13.00;53.40
6841;DHT22;3458;53.678;14.080;2023-04-06T13:57:16;13.20;53.70
6841;DHT22;3458;53.678;14.080;2023-04-06T13:59:41;14.00;53.40
6841;DHT22;3458;53.678;14.080;2023-04-06T14:02:09;14.20;52.40
6841;DHT22;3458;53.678;14.080;2023-04-06T14:04:35;14.10;52.30
6841;DHT22;3458;53.678;14.080;2023-04-06T14:07:01;14.00;51.80
6841;DHT22;3458;53.678;14.080;2023-04-06T14:09:28;13.80;52.80
6841;DHT22;3458;53.678;14.080;2023-04-06T14:11:54;13.70;51.90
6841;DHT22;3458;53.678;14.080;2023-04-06T14:14:20;13.40;51.40
6841;DHT22;3458;53.678;14.080;2023-04-06T14:16:47;13.30;51.70
6841;DHT22;3458;53.678;14.080;2023-04-06T14:19:14;13.10;52.10
6841;DHT22;3458;53.678;14.080;2023-04-06T14:21:41;13.00;52.30
6841;DHT22;3458;53.678;14.080;2023-04-06T14:24:07;12.90;52.90
6841;DHT22;3458;53.678;14.080;2023-04-06T14:26:34;12.90;52.70
6841;DHT22;3458;53.678;14.080;2023-04-06T14:29:00;12.70;51.70
6841;DHT22;3458;53.678;14.080;2023-04-06T14:31:26;12.50;51.80
6841;DHT22;3458;53.678;14.080;2023-04-06T14:33:52;12.40;51.40
6841;DHT22;3458;53.678;14.080;2023-04-06T14:36:18;12.40;51.70
6841;DHT22;3458;53.678;14.080;2023-04-06T14:38:43;12.60;51.60
6841;DHT22;3458;53.678;14.080;2023-04-06T14:41:15;12.70;51.20
6841;DHT22;3458;53.678;14.080;2023-04-06T14:43:42;12.80;51.80
6841;DHT22;3458;53.678;14.080;2023-04-06T14:46:08;12.70;51.50
6841;DHT22;3458;53.678;14.080;2023-04-06T14:48:35;12.60;51.20
6841;DHT22;3458;53.678;14.080;2023-04-06T14:51:01;12.60;51.50
6841;DHT22;3458;53.678;14.080;2023-04-06T14:53:27;12.60;52.40
6841;DHT22;3458;53.678;14.080;2023-04-06T14:55:53;13.40;52.20
6841;DHT22;3458;53.678;14.080;2023-04-06T14:58:19;15.20;51.80
6841;DHT22;3458;53.678;14.080;2023-04-06T15:00:45;16.80;49.40
6841;DHT22;3458;53.678;14.080;2023-04-06T15:03:10;18.20;47.90
6841;DHT22;3458;53.678;14.080;2023-04-06T15:05:36;19.20;44.40
6841;DHT22;3458;53.678;14.080;2023-04-06T15:08:01;19.00;42.50
6841;DHT22;3458;53.678;14.080;2023-04-06T15:10:27;18.10;42.90
6841;DHT22;3458;53.678;14.080;2023-04-06T15:12:53;17.20;43.30
6841;DHT22;3458;53.678;14.080;2023-04-06T15:15:19;16.30;43.50
6841;DHT22;3458;53.678;14.080;2023-04-06T15:17:44;16.00;44.50
6841;DHT22;3458;53.678;14.080;2023-04-06T15:20:10;16.80;43.50
6841;DHT22;3458;53.678;14.080;2023-04-06T15:22:35;17.60;43.60
6841;DHT22;3458;53.678;14.080;2023-04-06T15:25:01;18.40;43.80
6841;DHT22;3458;53.678;14.080;2023-04-06T15:27:27;19.50;42.80
6841;DHT22;3458;53.678;14.080;2023-04-06T15:29:52;20.60;41.30
6841;DHT22;3458;53.678;14.080;2023-04-06T15:32:18;20.40;39.10
6841;DHT22;3458;53.678;14.080;2023-04-06T15:34:44;20.40;39.50
6841;DHT22;3458;53.678;14.080;2023-04-06T15:37:10;19.70;39.40
6841;DHT22;3458;53.678;14.080;2023-04-06T15:39:35;19.10;40.40
6841;DHT22;3458;53.678;14.080;2023-04-06T15:42:02;18.80;39.50
6841;DHT22;3458;53.678;14.080;2023-04-06T15:44:28;18.50;39.80
6841;DHT22;3458;53.678;14.080;2023-04-06T15:46:54;18.40;39.20
6841;DHT22;3458;53.678;14.080;2023-04-06T15:49:20;17.60;39.80
6841;DHT22;3458;53.678;14.080;2023-04-06T15:51:49;16.70;41.00